Meteo Giornale » Osservazioni meteo Iran » Ramsar
ore: 00:30 - Osservazioni Meteo Ramsar
Lat. 36° 54' N Lon. 50° 40' E Alt. -23 metri s.l.m.
24 °C
Molto Nuvoloso
Temp. 24 Ore
24 °C
29 °C
Nord
1.8 Km/h
Dew point 20 °C
Umidità 78 %
Visibilità 10 Km
Il sole sorge alle ore 05:38
Il sole tramonta alle ore 18:36
| Data e Ora | Cielo e Fenomeni | T °C | DP °C | Um. % | Pres. hPa | Vis. km | Vento km/h | |
|---|---|---|---|---|---|---|---|---|
| Oggi h: 00:30 | Molto Nuvoloso | 24 | 20 | 78 | 1010 | 10 | N 1.8 | |
| Ieri h: 23:30 | Molto Nuvoloso | 24 | 19 | 73 | 1011 | 10 | N 5.5 | |
| Ieri h: 22:30 | Molto Nuvoloso | 25 | 19 | 69 | 1011 | 10 | NO 20.3 | |
| Ieri h: 21:30 | Molto Nuvoloso | 25 | 20 | 73 | 1011 | 10 | N 5.5 | |
| Ieri h: 20:30 | Molto Nuvoloso | 25 | 20 | 73 | 1011 | 10 | N 0 | |
| Ieri h: 19:30 | Molto Nuvoloso | 25 | 20 | 73 | 1010 | 10 | N 1.8 | |
| Ieri h: 18:30 | Molto Nuvoloso | 25 | 20 | 73 | 1010 | 10 | O/NO 7.4 | |
| Ieri h: 17:30 | Molto Nuvoloso | 26 | 20 | 69 | 1010 | 10 | NO 14.8 | |
| Ieri h: 16:30 | Molto Nuvoloso | 26 | 20 | 69 | 1009 | 10 | NO 18.5 | |
| Ieri h: 15:30 | Molto Nuvoloso | 28 | 20 | 61 | 1009 | 10 | NO 22.2 | |
| Ieri h: 15:00 | Molto Nuvoloso | 28 | 20 | 61 | 1009 | 10 | NO 18.5 | |
| Ieri h: 14:30 | Molto Nuvoloso | 28 | 20 | 61 | 1009 | 10 | NO 18.5 | |
| Ieri h: 14:00 | Molto Nuvoloso | 28 | 19 | 58 | 1009 | 10 | NO 14.8 | |
| Ieri h: 13:30 | Molto Nuvoloso | 29 | 19 | 54 | 1009 | 10 | NO 13 | |
| Ieri h: 13:00 | Molto Nuvoloso | 29 | 19 | 54 | 1009 | 10 | NO 13 | |
| Ieri h: 12:30 | Molto Nuvoloso | 29 | 19 | 54 | 1009 | 10 | NO 22.2 | |
| Ieri h: 12:00 | Molto Nuvoloso | 28 | 20 | 61 | 1010 | 10 | NO 22.2 | |
| Ieri h: 11:30 | Molto Nuvoloso | 28 | 20 | 61 | 1010 | 10 | NO 22.2 | |
| Ieri h: 11:00 | Molto Nuvoloso | 29 | 20 | 58 | 1010 | 10 | N/NO 24 | |
| Ieri h: 10:30 | Molto Nuvoloso | 29 | 20 | 58 | 1010 | 10 | NO 22.2 | |
| Ieri h: 10:00 | Molto Nuvoloso | 28 | 21 | 65 | 1010 | 10 | NO 20.3 | |
| Ieri h: 09:30 | Molto Nuvoloso | 28 | 20 | 61 | 1010 | 10 | N/NO 20.3 | |
| Ieri h: 08:30 | Molto Nuvoloso | 28 | 21 | 65 | 1011 | 10 | N 13 | |
| Ieri h: 07:30 | Molto Nuvoloso | 26 | 21 | 73 | 1010 | 10 | N 1.8 | |
| Ieri h: 06:30 | Molto Nuvoloso | 25 | 21 | 78 | 1011 | 10 | N 5.5 | |
| Ieri h: 05:30 | Molto Nuvoloso | 25 | 21 | 78 | 1011 | 10 | N 3.7 | |
| Ieri h: 04:30 | Molto Nuvoloso | 25 | 20 | 73 | 1011 | 10 | NO 7.4 | |
| Ieri h: 03:30 | Molto Nuvoloso | 25 | 21 | 78 | 1011 | 10 | N 0 | |



